Time;durP1;ratioP1;P1;durP2;ratioP2;P2;SDS_P1;SDS_P2;PMS_P1;PMS_P2;Temp;Humidity;BMP_temperature;BMP_pressure;BME280_temperature;BME280_humidity;BME280_pressure;Samples;Min_cycle;Max_cycle;Signal;HPM_P1;HPM_P2
2021/12/13 00:00:52;;;;;;;8.80;7.90;;;5.80;99.90;;;;;;4995440;28;20237;-77
2021/12/13 00:03:26;;;;;;;9.65;8.70;;;5.80;99.90;;;;;;5008426;28;20198;-77
2021/12/13 00:05:56;;;;;;;10.30;9.25;;;5.80;99.90;;;;;;4994707;28;20199;-77
2021/12/13 00:08:28;;;;;;;8.75;7.85;;;5.80;99.90;;;;;;4991315;28;20227;-77
2021/12/13 00:10:59;;;;;;;9.93;8.90;;;5.80;99.90;;;;;;5006465;28;20192;-77
2021/12/13 00:13:30;;;;;;;10.30;9.35;;;5.80;99.90;;;;;;5009189;28;20191;-77
2021/12/13 00:16:01;;;;;;;9.65;8.85;;;5.90;99.90;;;;;;5002222;28;20215;-77
2021/12/13 00:18:34;;;;;;;10.05;9.13;;;5.90;99.90;;;;;;5000270;28;20276;-76
2021/12/13 00:21:07;;;;;;;9.07;8.27;;;6.00;99.90;;;;;;5012422;28;20397;-77
2021/12/13 00:23:40;;;;;;;10.25;9.30;;;6.00;99.90;;;;;;5003855;28;20198;-77
2021/12/13 00:26:08;;;;;;;9.98;8.98;;;6.00;99.90;;;;;;4994818;28;20207;-77
2021/12/13 00:28:38;;;;;;;8.73;8.00;;;6.10;99.90;;;;;;5000638;28;20211;-77
2021/12/13 00:31:16;;;;;;;10.07;9.18;;;6.10;99.90;;;;;;4999156;28;20194;-77
2021/12/13 00:33:58;;;;;;;9.63;8.63;;;6.10;99.90;;;;;;5009956;28;20604;-77
2021/12/13 00:36:33;;;;;;;9.43;8.63;;;6.10;99.90;;;;;;5003330;28;20315;-77
2021/12/13 00:39:07;;;;;;;10.15;9.32;;;6.10;99.90;;;;;;4999355;28;20257;-77
2021/12/13 00:41:36;;;;;;;10.85;9.85;;;6.20;99.90;;;;;;5014384;28;20186;-77
2021/12/13 00:44:06;;;;;;;10.35;9.35;;;6.20;99.90;;;;;;5006992;28;20199;-77
2021/12/13 00:46:36;;;;;;;11.13;10.07;;;6.20;99.90;;;;;;5010124;28;20286;-77
2021/12/13 00:49:12;;;;;;;11.57;10.52;;;6.20;99.90;;;;;;5013261;28;20245;-77
2021/12/13 00:51:44;;;;;;;11.75;10.57;;;6.10;99.90;;;;;;5011833;28;20187;-77
2021/12/13 00:54:17;;;;;;;11.18;10.13;;;6.10;99.90;;;;;;5013115;28;20203;-77
2021/12/13 00:56:53;;;;;;;12.75;11.05;;;6.20;99.90;;;;;;5013537;28;20222;-77
2021/12/13 00:59:24;;;;;;;11.40;10.40;;;6.20;99.90;;;;;;4998637;28;20245;-77
2021/12/13 01:01:55;;;;;;;11.57;10.50;;;6.20;99.90;;;;;;5013193;28;20639;-77
2021/12/13 01:04:44;;;;;;;12.68;11.40;;;6.20;99.90;;;;;;5013067;28;20273;-77
2021/12/13 01:07:57;;;;;;;13.13;11.82;;;6.20;99.90;;;;;;4994279;28;20218;-77
2021/12/13 01:11:09;;;;;;;13.23;11.75;;;6.10;99.90;;;;;;4998988;28;20195;-76
2021/12/13 01:13:57;;;;;;;13.02;11.80;;;6.10;99.90;;;;;;5011889;28;20209;-77
2021/12/13 01:16:39;;;;;;;15.75;14.15;;;6.10;99.90;;;;;;4997253;28;20597;-77
2021/12/13 01:19:28;;;;;;;14.73;13.25;;;6.00;99.90;;;;;;5010578;28;20222;-77
2021/12/13 01:22:22;;;;;;;14.40;12.93;;;6.00;99.90;;;;;;4995882;28;20271;-77
2021/12/13 01:25:15;;;;;;;17.98;13.85;;;6.00;99.90;;;;;;5010388;28;20194;-77
2021/12/13 01:27:46;;;;;;;16.40;14.27;;;6.00;99.90;;;;;;5008456;28;20221;-77
2021/12/13 01:30:15;;;;;;;28.15;14.38;;;6.00;99.90;;;;;;5003746;28;20192;-77
2021/12/13 01:32:48;;;;;;;17.20;13.20;;;6.00;99.90;;;;;;5006012;28;20194;-77
2021/12/13 01:35:18;;;;;;;16.25;14.23;;;5.90;99.90;;;;;;5012228;28;20281;-77
2021/12/13 01:37:51;;;;;;;15.98;13.73;;;6.00;99.90;;;;;;5012950;28;20225;-77
2021/12/13 01:40:22;;;;;;;19.10;14.75;;;6.00;99.90;;;;;;5010160;28;20347;-77
2021/12/13 01:42:57;;;;;;;44.47;16.83;;;5.90;99.90;;;;;;4993152;28;20611;-77
2021/12/13 01:45:28;;;;;;;27.80;16.27;;;5.90;99.90;;;;;;4997622;28;20585;-77
2021/12/13 01:47:55;;;;;;;16.73;15.10;;;5.90;99.90;;;;;;4993263;28;20219;-77
2021/12/13 01:50:25;;;;;;;34.50;17.60;;;5.90;99.90;;;;;;5003813;28;20201;-77
2021/12/13 01:52:55;;;;;;;20.45;16.65;;;5.90;99.90;;;;;;5005718;28;20199;-77
2021/12/13 01:55:26;;;;;;;19.35;15.85;;;6.00;99.90;;;;;;5001800;28;20201;-77
2021/12/13 01:58:08;;;;;;;18.00;16.05;;;5.90;99.90;;;;;;4999882;28;20233;-77
2021/12/13 02:01:08;;;;;;;18.55;16.38;;;5.90;99.90;;;;;;5002902;28;20199;-76
2021/12/13 02:03:41;;;;;;;23.90;17.45;;;5.90;99.90;;;;;;5011249;28;20195;-77
2021/12/13 02:06:09;;;;;;;18.65;16.40;;;5.90;99.90;;;;;;5008736;28;20187;-77
2021/12/13 02:08:37;;;;;;;20.52;15.95;;;5.90;99.90;;;;;;4992327;28;20230;-77
2021/12/13 02:11:05;;;;;;;22.58;17.63;;;5.90;99.90;;;;;;4992901;28;20196;-77
2021/12/13 02:13:42;;;;;;;20.63;16.77;;;6.00;99.90;;;;;;4992884;28;20199;-77
2021/12/13 02:18:58;;;;;;;27.88;16.23;;;6.00;99.90;;;;;;4995600;28;20793;-77
2021/12/13 02:21:31;;;;;;;24.58;15.65;;;6.00;99.90;;;;;;4998685;28;20194;-77
2021/12/13 02:24:04;;;;;;;20.42;16.23;;;6.00;99.90;;;;;;4995727;28;20221;-77
2021/12/13 02:26:32;;;;;;;21.70;15.82;;;5.90;99.90;;;;;;4992896;28;20215;-77
2021/12/13 02:29:05;;;;;;;31.02;15.75;;;5.90;99.90;;;;;;4992309;28;20222;-77
2021/12/13 02:31:35;;;;;;;32.60;15.02;;;5.90;99.90;;;;;;5009732;28;20269;-77
2021/12/13 02:34:05;;;;;;;23.33;15.00;;;5.80;99.90;;;;;;5000665;28;20733;-77
2021/12/13 02:36:36;;;;;;;70.63;19.48;;;5.80;99.90;;;;;;5002892;28;20290;-77
2021/12/13 02:39:08;;;;;;;33.20;16.80;;;5.70;99.90;;;;;;4992671;28;20211;-77
2021/12/13 02:41:37;;;;;;;23.92;17.45;;;5.70;99.90;;;;;;4993820;28;20206;-78
2021/12/13 02:44:15;;;;;;;41.58;16.30;;;5.70;99.90;;;;;;5011044;28;20196;-77
2021/12/13 02:46:42;;;;;;;39.97;18.42;;;5.70;99.90;;;;;;5001430;28;20641;-77
2021/12/13 02:49:14;;;;;;;25.92;17.40;;;5.70;99.90;;;;;;5001846;28;20211;-77
2021/12/13 02:51:44;;;;;;;42.40;19.30;;;5.70;99.90;;;;;;4993442;28;20206;-77
2021/12/13 02:54:17;;;;;;;68.47;20.15;;;5.70;99.90;;;;;;5007592;28;20267;-77
2021/12/13 02:56:48;;;;;;;19.60;15.45;;;5.70;99.90;;;;;;4993635;28;20230;-77
2021/12/13 02:59:17;;;;;;;43.70;19.40;;;5.70;99.90;;;;;;4992030;28;20216;-77
2021/12/13 03:01:48;;;;;;;72.97;19.85;;;5.70;99.90;;;;;;4994802;28;20190;-77
2021/12/13 03:04:19;;;;;;;138.43;22.83;;;5.70;99.90;;;;;;5000757;28;20646;-77
2021/12/13 03:06:49;;;;;;;125.70;23.02;;;5.70;99.90;;;;;;4992025;28;20227;-77
2021/12/13 03:09:21;;;;;;;66.60;19.48;;;5.70;99.90;;;;;;4993116;28;20233;-77
2021/12/13 03:11:49;;;;;;;46.25;19.98;;;5.70;99.90;;;;;;5009556;28;20195;-77
2021/12/13 03:14:23;;;;;;;107.72;22.58;;;5.70;99.90;;;;;;5011377;28;20204;-77
2021/12/13 03:16:54;;;;;;;42.92;19.98;;;5.70;99.90;;;;;;5004119;28;20194;-77
2021/12/13 03:19:31;;;;;;;54.15;21.00;;;5.70;99.90;;;;;;5002448;28;20214;-77
2021/12/13 03:22:32;;;;;;;42.33;19.88;;;5.70;99.90;;;;;;5008359;28;20253;-77
2021/12/13 03:25:13;;;;;;;33.22;19.20;;;5.70;99.90;;;;;;5008166;28;20342;-76
2021/12/13 03:27:56;;;;;;;23.77;18.05;;;5.70;99.90;;;;;;4991633;28;20246;-77
2021/12/13 03:30:27;;;;;;;103.03;23.02;;;5.70;99.90;;;;;;4995015;28;20201;-77
2021/12/13 03:32:59;;;;;;;47.40;21.40;;;5.70;99.90;;;;;;4996034;28;20199;-78
2021/12/13 03:35:34;;;;;;;44.10;19.80;;;5.80;99.90;;;;;;4991652;28;20199;-77
2021/12/13 03:38:06;;;;;;;22.83;18.58;;;5.80;99.90;;;;;;4987698;28;20705;-77
2021/12/13 03:40:35;;;;;;;65.30;23.02;;;5.90;99.90;;;;;;4991444;28;20215;-78
2021/12/13 03:43:09;;;;;;;42.45;20.27;;;5.90;99.90;;;;;;4991209;28;20279;-77
2021/12/13 03:45:41;;;;;;;19.58;17.55;;;5.90;99.90;;;;;;4993031;28;20282;-77
2021/12/13 03:48:12;;;;;;;19.33;16.40;;;6.00;99.90;;;;;;4990567;28;20217;-77
2021/12/13 03:50:44;;;;;;;25.38;18.83;;;6.00;99.90;;;;;;4992090;28;20722;-77
2021/12/13 03:53:15;;;;;;;20.02;17.08;;;6.00;99.90;;;;;;4999225;28;20201;-77
2021/12/13 03:55:46;;;;;;;18.65;15.90;;;6.10;99.90;;;;;;4999468;28;20281;-77
2021/12/13 03:58:19;;;;;;;18.98;16.92;;;6.10;99.90;;;;;;4991182;28;20311;-78
2021/12/13 04:00:51;;;;;;;27.50;18.60;;;6.20;99.90;;;;;;4991273;28;20739;-77
2021/12/13 04:03:19;;;;;;;19.13;16.75;;;6.20;99.90;;;;;;5003000;28;20563;-77
2021/12/13 04:05:48;;;;;;;29.42;17.27;;;6.20;99.90;;;;;;5001583;28;20572;-77
2021/12/13 04:08:17;;;;;;;23.52;16.95;;;6.30;99.90;;;;;;5010781;28;20621;-77
2021/12/13 04:10:48;;;;;;;17.95;15.90;;;6.30;99.90;;;;;;5008841;28;20195;-77
2021/12/13 04:13:21;;;;;;;21.85;15.45;;;6.60;99.90;;;;;;5007831;28;20190;-77
2021/12/13 04:16:01;;;;;;;17.92;16.10;;;6.50;99.90;;;;;;5009730;28;20198;-77
2021/12/13 04:18:41;;;;;;;17.42;15.27;;;6.50;99.90;;;;;;5010787;28;20291;-77
2021/12/13 04:21:09;;;;;;;20.08;15.90;;;6.60;99.90;;;;;;5008739;28;20285;-77
2021/12/13 04:23:38;;;;;;;17.10;15.30;;;6.50;99.90;;;;;;5005792;28;20591;-77
2021/12/13 04:26:09;;;;;;;30.15;17.05;;;6.60;99.90;;;;;;4994828;28;20244;-77
2021/12/13 04:28:41;;;;;;;17.70;15.50;;;6.40;99.90;;;;;;5006598;28;20253;-77
2021/12/13 04:31:11;;;;;;;19.50;16.13;;;6.50;99.90;;;;;;4991215;28;20289;-77
2021/12/13 04:33:41;;;;;;;24.38;16.50;;;6.50;99.90;;;;;;4991834;28;20208;-77
2021/12/13 04:36:13;;;;;;;22.73;15.60;;;6.70;99.90;;;;;;4999506;28;20281;-77
2021/12/13 04:38:48;;;;;;;21.08;16.10;;;6.50;99.90;;;;;;5003332;28;20269;-77
2021/12/13 04:41:24;;;;;;;28.17;17.30;;;6.60;99.90;;;;;;5009351;28;20277;-77
2021/12/13 04:43:57;;;;;;;26.10;16.25;;;6.40;99.90;;;;;;5008909;28;20221;-77
2021/12/13 04:46:28;;;;;;;26.13;16.05;;;6.50;99.90;;;;;;5009726;28;20381;-77
2021/12/13 04:49:00;;;;;;;56.42;20.35;;;6.30;99.90;;;;;;4992822;28;20282;-77
2021/12/13 04:51:35;;;;;;;29.00;16.80;;;6.40;99.90;;;;;;5005586;28;20194;-76
2021/12/13 04:54:02;;;;;;;26.10;17.98;;;6.10;99.90;;;;;;4986415;28;20302;-77
2021/12/13 04:56:30;;;;;;;19.60;17.52;;;6.10;99.90;;;;;;5006239;28;20194;-84
2021/12/13 04:59:02;;;;;;;22.98;16.80;;;6.00;99.90;;;;;;4998282;28;20752;-85
2021/12/13 05:01:30;;;;;;;20.67;16.60;;;6.20;99.90;;;;;;4993374;28;20234;-84
2021/12/13 05:03:59;;;;;;;21.60;16.02;;;6.00;99.90;;;;;;4992142;28;20214;-78
2021/12/13 05:06:29;;;;;;;32.53;20.15;;;6.00;99.90;;;;;;4994497;28;20231;-77
2021/12/13 05:08:59;;;;;;;23.60;17.83;;;6.10;99.90;;;;;;5001989;28;20242;-76
2021/12/13 05:11:31;;;;;;;22.73;17.55;;;6.00;99.90;;;;;;5006167;28;20205;-78
2021/12/13 05:13:59;;;;;;;26.58;17.55;;;6.10;99.90;;;;;;5007202;28;20541;-80
2021/12/13 05:16:36;;;;;;;26.85;18.27;;;6.00;99.90;;;;;;4994472;28;20233;-73
2021/12/13 05:19:06;;;;;;;22.58;18.27;;;6.00;99.90;;;;;;5006457;28;20256;-77
2021/12/13 05:21:37;;;;;;;19.95;17.25;;;6.00;99.90;;;;;;5001728;28;20202;-76
2021/12/13 05:24:10;;;;;;;24.92;17.83;;;6.00;99.90;;;;;;5007448;28;20245;-76
2021/12/13 05:26:50;;;;;;;21.77;18.02;;;6.00;99.90;;;;;;5001849;28;20587;-77
2021/12/13 05:29:27;;;;;;;21.95;18.17;;;6.10;99.90;;;;;;5007027;28;20195;-77
2021/12/13 05:31:57;;;;;;;26.00;19.42;;;6.10;99.90;;;;;;5002785;28;20302;-77
2021/12/13 05:34:32;;;;;;;22.65;18.00;;;6.10;99.90;;;;;;5003338;28;20282;-77
2021/12/13 05:37:01;;;;;;;22.17;17.40;;;6.10;99.90;;;;;;5007623;28;20229;-77
2021/12/13 05:39:28;;;;;;;23.15;18.90;;;6.10;99.90;;;;;;5013556;28;20321;-77
2021/12/13 05:42:00;;;;;;;25.25;19.23;;;6.10;99.90;;;;;;5006687;28;20192;-77
2021/12/13 05:44:29;;;;;;;20.42;17.85;;;6.10;99.90;;;;;;5004824;28;20208;-79
2021/12/13 05:46:58;;;;;;;20.65;17.25;;;6.10;99.90;;;;;;5008089;28;20869;-77
2021/12/13 05:49:28;;;;;;;22.92;18.23;;;6.10;99.90;;;;;;4996551;28;20203;-82
2021/12/13 05:52:04;;;;;;;28.85;19.48;;;6.10;99.90;;;;;;5001405;28;20196;-77
2021/12/13 05:54:34;;;;;;;21.30;19.00;;;6.10;99.90;;;;;;4988080;28;20213;-78
2021/12/13 05:57:09;;;;;;;25.98;19.83;;;6.10;99.90;;;;;;5000211;28;20214;-78
2021/12/13 05:59:40;;;;;;;25.67;18.42;;;6.10;99.90;;;;;;5002023;28;20217;-78
2021/12/13 06:02:12;;;;;;;22.55;18.90;;;6.10;99.90;;;;;;5001324;28;20673;-80
2021/12/13 06:04:44;;;;;;;23.63;18.35;;;6.10;99.90;;;;;;5002583;28;20201;-78
2021/12/13 06:07:21;;;;;;;24.50;18.95;;;6.10;99.90;;;;;;5000823;28;20211;-78
2021/12/13 06:10:01;;;;;;;25.52;19.58;;;6.20;99.90;;;;;;4996426;28;20214;-78
2021/12/13 06:12:34;;;;;;;25.45;20.17;;;6.20;99.90;;;;;;4994974;28;20203;-79
2021/12/13 06:15:24;;;;;;;32.33;20.83;;;6.20;99.90;;;;;;4999173;28;20256;-79
2021/12/13 06:17:56;;;;;;;21.45;17.52;;;6.20;99.90;;;;;;4994033;28;20254;-79
2021/12/13 06:20:28;;;;;;;25.00;18.65;;;6.20;99.90;;;;;;5003748;28;20194;-79
2021/12/13 06:23:06;;;;;;;22.98;18.65;;;6.30;99.90;;;;;;5003006;28;20209;-79
2021/12/13 06:25:34;;;;;;;25.63;19.17;;;6.30;99.90;;;;;;4993537;28;20294;-78
2021/12/13 06:28:05;;;;;;;21.50;18.02;;;6.30;99.90;;;;;;5008583;28;20222;-80
2021/12/13 06:30:35;;;;;;;26.08;20.40;;;6.30;99.90;;;;;;5006492;28;20198;-79
2021/12/13 06:33:06;;;;;;;24.08;19.70;;;6.30;99.90;;;;;;5000387;28;20282;-79
2021/12/13 06:35:40;;;;;;;27.27;20.30;;;6.30;99.90;;;;;;5009223;28;20194;-79
2021/12/13 06:38:36;;;;;;;22.42;18.67;;;6.30;99.90;;;;;;4994415;28;20229;-79
2021/12/13 06:41:11;;;;;;;32.50;21.63;;;6.30;99.90;;;;;;4995975;28;20640;-78
2021/12/13 06:43:43;;;;;;;27.98;21.17;;;6.30;99.90;;;;;;4992794;28;20203;-78
2021/12/13 06:46:13;;;;;;;25.25;18.83;;;6.30;99.90;;;;;;4996958;28;20186;-78
2021/12/13 06:48:43;;;;;;;21.00;18.52;;;6.30;99.90;;;;;;5009063;28;20621;-78
2021/12/13 06:51:15;;;;;;;27.70;18.30;;;6.30;99.90;;;;;;4993156;28;20195;-79
2021/12/13 06:53:59;;;;;;;24.83;19.27;;;6.30;99.90;;;;;;5000501;28;20240;-78
2021/12/13 06:56:30;;;;;;;21.88;17.77;;;6.30;99.90;;;;;;4991230;28;20199;-78
2021/12/13 06:59:00;;;;;;;20.92;18.13;;;6.30;99.90;;;;;;5003041;28;20256;-78
2021/12/13 07:01:28;;;;;;;22.98;17.67;;;6.30;99.90;;;;;;5007178;28;20309;-77
2021/12/13 07:03:59;;;;;;;26.45;18.00;;;6.30;99.90;;;;;;4991825;28;20195;-78
2021/12/13 07:06:27;;;;;;;26.85;18.00;;;6.40;99.90;;;;;;4993185;28;20213;-79
2021/12/13 07:09:11;;;;;;;19.65;15.70;;;6.40;99.90;;;;;;4999155;28;20209;-78
2021/12/13 07:11:48;;;;;;;21.23;15.77;;;6.40;99.90;;;;;;5001478;28;20189;-78
2021/12/13 07:14:19;;;;;;;20.77;15.85;;;6.40;99.90;;;;;;4995316;28;20195;-78
2021/12/13 07:16:50;;;;;;;23.85;17.17;;;6.40;99.90;;;;;;5001381;28;20557;-79
2021/12/13 07:19:22;;;;;;;24.67;18.60;;;6.40;99.90;;;;;;4995214;28;20233;-78
2021/12/13 07:21:54;;;;;;;20.27;16.60;;;6.50;99.90;;;;;;5008197;28;20626;-78
2021/12/13 07:24:32;;;;;;;24.23;18.73;;;6.40;99.90;;;;;;5003717;28;20203;-78
2021/12/13 07:27:05;;;;;;;24.00;17.83;;;6.40;99.90;;;;;;4992551;28;20318;-78
2021/12/13 07:29:43;;;;;;;22.83;16.67;;;6.40;99.90;;;;;;4995024;28;20198;-78
2021/12/13 07:32:18;;;;;;;22.00;17.67;;;6.40;99.90;;;;;;4992950;28;20257;-78
2021/12/13 07:35:06;;;;;;;21.48;16.17;;;6.50;99.90;;;;;;4997769;28;20205;-78
2021/12/13 07:37:43;;;;;;;19.55;15.65;;;6.50;99.90;;;;;;4990991;28;20223;-79
2021/12/13 07:40:35;;;;;;;23.45;16.98;;;6.60;99.90;;;;;;4993782;28;20228;-78
2021/12/13 07:43:15;;;;;;;20.25;18.05;;;6.60;99.90;;;;;;5002871;28;20195;-79
2021/12/13 07:45:54;;;;;;;20.17;18.05;;;6.60;99.90;;;;;;4992271;28;20201;-79
2021/12/13 07:48:24;;;;;;;21.13;18.27;;;6.60;99.90;;;;;;4995715;28;20276;-79
2021/12/13 07:51:09;;;;;;;20.30;17.95;;;6.60;99.90;;;;;;5000351;28;20550;-79
2021/12/13 07:53:44;;;;;;;20.98;17.58;;;6.70;99.90;;;;;;4989632;28;20249;-78
2021/12/13 07:56:13;;;;;;;18.25;15.20;;;6.60;99.90;;;;;;4998437;28;20201;-76
2021/12/13 07:58:43;;;;;;;19.70;16.45;;;6.60;99.90;;;;;;4993994;28;20227;-78
2021/12/13 08:01:16;;;;;;;17.70;15.23;;;6.60;99.90;;;;;;5002133;28;20602;-76
2021/12/13 08:03:53;;;;;;;19.23;16.20;;;6.60;99.90;;;;;;4997876;28;20897;-78
2021/12/13 08:06:22;;;;;;;19.70;16.30;;;6.60;99.90;;;;;;4999349;28;20201;-77
2021/12/13 08:08:53;;;;;;;16.50;14.75;;;6.70;99.90;;;;;;4997094;28;20203;-77
2021/12/13 08:11:35;;;;;;;23.52;17.20;;;6.70;99.90;;;;;;4990795;28;20629;-78
2021/12/13 08:14:03;;;;;;;20.65;16.17;;;6.80;99.90;;;;;;4998974;28;20194;-78
2021/12/13 08:16:34;;;;;;;19.83;17.50;;;6.80;99.90;;;;;;5002525;28;20776;-78
2021/12/13 08:19:17;;;;;;;19.90;16.60;;;6.90;99.90;;;;;;4999043;28;20563;-78
2021/12/13 08:21:48;;;;;;;21.70;15.75;;;6.90;99.90;;;;;;5002079;28;20195;-77
2021/12/13 08:24:25;;;;;;;17.10;15.27;;;6.90;99.90;;;;;;4997128;28;20198;-77
2021/12/13 08:27:11;;;;;;;20.40;15.65;;;6.90;99.90;;;;;;5007200;28;20723;-78
2021/12/13 08:29:40;;;;;;;17.33;15.55;;;7.00;99.90;;;;;;4997580;28;20227;-78
2021/12/13 08:32:15;;;;;;;16.52;14.77;;;7.00;99.90;;;;;;4999713;28;20217;-78
2021/12/13 08:34:46;;;;;;;16.88;15.18;;;7.10;99.90;;;;;;5002684;28;20571;-78
2021/12/13 08:37:20;;;;;;;19.10;15.50;;;7.10;99.90;;;;;;4998055;28;20562;-78
2021/12/13 08:39:53;;;;;;;18.08;15.32;;;7.20;99.90;;;;;;4998314;28;20519;-78
2021/12/13 08:42:23;;;;;;;18.20;16.30;;;7.20;99.90;;;;;;5005177;28;20242;-79
2021/12/13 08:44:57;;;;;;;18.95;14.88;;;7.20;99.90;;;;;;5009550;28;20206;-77
2021/12/13 08:47:31;;;;;;;19.13;16.67;;;7.20;99.90;;;;;;5003074;28;20213;-79
2021/12/13 08:50:03;;;;;;;18.50;16.38;;;7.10;99.90;;;;;;5002184;28;20205;-77
2021/12/13 08:52:33;;;;;;;18.10;16.20;;;7.20;99.90;;;;;;5003658;28;20195;-78
2021/12/13 08:55:05;;;;;;;20.50;16.50;;;7.20;99.90;;;;;;4997228;28;20602;-78
2021/12/13 08:57:48;;;;;;;18.73;16.70;;;7.30;99.90;;;;;;4994865;28;20332;-78
2021/12/13 09:00:26;;;;;;;22.80;18.25;;;7.20;99.90;;;;;;4999357;28;20570;-78
2021/12/13 09:02:58;;;;;;;20.52;18.33;;;7.20;99.90;;;;;;4995783;28;20194;-78
2021/12/13 09:05:28;;;;;;;20.52;17.42;;;7.20;99.90;;;;;;5004458;28;20276;-78
2021/12/13 09:07:59;;;;;;;21.15;16.98;;;7.20;99.90;;;;;;5007329;28;20575;-78
2021/12/13 09:10:41;;;;;;;21.73;18.08;;;7.30;99.90;;;;;;5001282;28;20207;-79
2021/12/13 09:13:10;;;;;;;21.48;18.77;;;7.40;99.90;;;;;;4995413;28;20651;-78
2021/12/13 09:15:38;;;;;;;20.80;17.63;;;7.40;99.90;;;;;;5006984;28;20224;-78
2021/12/13 09:18:08;;;;;;;21.23;17.58;;;7.40;99.90;;;;;;4992785;28;20222;-78
2021/12/13 09:20:42;;;;;;;20.75;17.83;;;7.50;99.90;;;;;;5007625;28;20713;-78
2021/12/13 09:23:16;;;;;;;19.05;16.70;;;7.50;99.90;;;;;;5011200;28;20247;-78
2021/12/13 09:25:50;;;;;;;20.55;17.65;;;7.60;99.90;;;;;;5005707;28;20257;-78
2021/12/13 09:28:20;;;;;;;19.60;17.50;;;7.60;99.90;;;;;;5010027;28;20209;-78
2021/12/13 09:30:52;;;;;;;19.33;17.27;;;7.60;99.90;;;;;;4997721;28;20691;-78
2021/12/13 09:33:22;;;;;;;20.70;17.90;;;7.60;99.90;;;;;;4999524;28;20545;-78
2021/12/13 09:35:53;;;;;;;21.90;17.92;;;7.40;99.90;;;;;;5004571;28;20201;-78
2021/12/13 09:38:40;;;;;;;22.38;18.30;;;7.60;99.90;;;;;;5010287;28;20585;-78
2021/12/13 09:41:17;;;;;;;21.98;17.85;;;7.60;99.90;;;;;;5002657;28;20568;-78
2021/12/13 09:43:48;;;;;;;26.60;18.48;;;7.50;99.90;;;;;;4999319;28;20187;-78
2021/12/13 09:46:19;;;;;;;22.42;18.40;;;7.50;99.90;;;;;;5006256;28;20753;-78
2021/12/13 09:48:50;;;;;;;21.20;17.42;;;7.50;99.90;;;;;;4998913;28;20205;-78
2021/12/13 09:51:21;;;;;;;22.52;18.77;;;7.60;99.90;;;;;;4998852;28;20201;-78
2021/12/13 09:53:51;;;;;;;21.67;18.30;;;7.60;99.90;;;;;;4991445;28;20203;-78
2021/12/13 09:56:22;;;;;;;21.02;18.38;;;7.70;99.90;;;;;;4994684;28;20219;-79
2021/12/13 09:59:00;;;;;;;22.08;19.65;;;7.70;99.90;;;;;;4998843;28;20223;-76
2021/12/13 10:01:33;;;;;;;26.85;18.95;;;7.70;99.90;;;;;;5006556;28;20638;-77
2021/12/13 10:04:05;;;;;;;23.58;19.40;;;7.70;99.90;;;;;;4998763;28;20192;-76
2021/12/13 10:06:37;;;;;;;24.70;19.23;;;7.80;99.90;;;;;;5001509;28;20594;-77
2021/12/13 10:09:08;;;;;;;21.92;18.63;;;7.80;99.90;;;;;;5002509;28;20205;-77
2021/12/13 10:11:40;;;;;;;22.40;18.25;;;7.90;99.90;;;;;;5001520;28;20530;-77
2021/12/13 10:14:10;;;;;;;20.45;18.45;;;7.90;99.90;;;;;;4993185;28;20249;-77
2021/12/13 10:16:43;;;;;;;21.75;17.95;;;8.00;99.90;;;;;;5002233;28;20346;-76
2021/12/13 10:19:18;;;;;;;22.52;17.80;;;8.10;99.90;;;;;;4998057;28;20280;-79
2021/12/13 10:21:47;;;;;;;21.23;17.75;;;8.10;99.90;;;;;;5003169;28;20198;-77
2021/12/13 10:24:19;;;;;;;20.60;17.38;;;8.10;99.90;;;;;;4994483;28;20298;-79
2021/12/13 10:26:47;;;;;;;21.58;18.13;;;8.10;99.90;;;;;;5005235;28;20229;-76
2021/12/13 10:29:16;;;;;;;23.73;18.65;;;8.10;99.90;;;;;;5001432;28;20203;-77
2021/12/13 10:31:48;;;;;;;23.10;18.73;;;8.10;99.90;;;;;;5001734;28;20233;-77
2021/12/13 10:34:20;;;;;;;23.35;20.30;;;8.10;99.90;;;;;;4998064;28;20258;-77
2021/12/13 10:36:51;;;;;;;23.83;19.35;;;8.10;99.90;;;;;;4996489;28;20219;-77
2021/12/13 10:39:22;;;;;;;25.83;20.55;;;8.10;99.90;;;;;;4999300;28;20736;-77
2021/12/13 10:41:54;;;;;;;21.60;19.33;;;8.10;99.90;;;;;;5002883;28;20672;-77
2021/12/13 10:44:28;;;;;;;24.52;19.80;;;8.10;99.90;;;;;;5004325;28;20534;-77
2021/12/13 10:46:58;;;;;;;22.20;18.15;;;8.10;99.90;;;;;;4999343;28;20215;-76
2021/12/13 10:49:30;;;;;;;23.27;19.30;;;8.20;99.90;;;;;;4995003;28;20322;-77
2021/12/13 10:52:00;;;;;;;23.08;18.40;;;8.30;99.90;;;;;;5009444;28;20609;-77
2021/12/13 10:54:31;;;;;;;20.17;18.00;;;8.30;99.90;;;;;;5002852;28;20205;-77
2021/12/13 10:57:04;;;;;;;22.02;19.20;;;8.30;99.90;;;;;;4998165;28;20305;-77
2021/12/13 10:59:34;;;;;;;20.52;17.70;;;8.40;99.90;;;;;;5003772;28;20219;-77
2021/12/13 11:02:04;;;;;;;20.67;17.58;;;8.50;99.90;;;;;;4999122;28;20214;-76
2021/12/13 11:04:37;;;;;;;18.40;16.40;;;8.50;99.90;;;;;;4992624;28;20209;-77
2021/12/13 11:07:07;;;;;;;19.80;16.17;;;8.60;99.90;;;;;;5006300;28;20241;-77
2021/12/13 11:09:37;;;;;;;19.77;17.67;;;8.70;99.90;;;;;;5003601;28;20268;-77
2021/12/13 11:12:07;;;;;;;21.98;17.95;;;8.70;99.90;;;;;;4995441;28;20197;-77
2021/12/13 11:14:37;;;;;;;17.70;15.90;;;8.70;99.90;;;;;;4996678;28;20249;-77
2021/12/13 11:17:08;;;;;;;18.20;16.27;;;8.80;99.90;;;;;;5005589;28;20214;-78
2021/12/13 11:19:40;;;;;;;18.02;15.23;;;8.90;99.90;;;;;;5000028;28;20239;-78
2021/12/13 11:22:11;;;;;;;21.05;16.95;;;8.90;99.90;;;;;;4992300;28;20678;-78
2021/12/13 11:24:43;;;;;;;17.60;15.70;;;9.00;99.90;;;;;;4997155;28;20658;-77
2021/12/13 11:27:17;;;;;;;18.52;15.70;;;9.00;99.90;;;;;;5001787;28;20252;-77
2021/12/13 11:29:46;;;;;;;15.35;13.85;;;9.10;99.90;;;;;;5004425;28;20195;-77
2021/12/13 11:32:43;;;;;;;16.52;14.82;;;9.20;99.90;;;;;;5005735;28;20321;-78
2021/12/13 11:35:39;;;;;;;22.27;15.73;;;9.20;99.90;;;;;;5000342;28;20208;-77
2021/12/13 11:38:30;;;;;;;20.45;13.45;;;9.20;99.90;;;;;;5003316;28;20202;-77
2021/12/13 11:41:24;;;;;;;18.02;14.13;;;9.20;99.90;;;;;;4985959;28;20241;-76
2021/12/13 11:44:05;;;;;;;14.48;12.95;;;9.40;99.90;;;;;;5003591;28;20199;-78
2021/12/13 11:46:58;;;;;;;13.90;12.10;;;9.40;99.90;;;;;;5001594;28;20572;-78
2021/12/13 11:49:57;;;;;;;15.07;12.25;;;9.50;99.90;;;;;;4998709;28;20206;-78
2021/12/13 11:53:04;;;;;;;14.52;12.85;;;9.70;99.90;;;;;;4962565;28;20199;-78
2021/12/13 11:56:00;;;;;;;13.65;11.60;;;9.80;99.90;;;;;;4997225;28;20199;-78
2021/12/13 11:58:42;;;;;;;17.38;11.70;;;9.80;99.90;;;;;;4997083;28;20207;-78
2021/12/13 12:01:47;;;;;;;12.30;11.00;;;9.90;99.90;;;;;;5002261;28;20763;-77
2021/12/13 12:05:04;;;;;;;15.07;12.02;;;10.00;99.90;;;;;;4999142;28;20286;-78
2021/12/13 12:08:08;;;;;;;9.70;8.80;;;10.00;99.90;;;;;;5002254;28;20682;-78
2021/12/13 12:10:57;;;;;;;10.73;9.63;;;10.10;99.90;;;;;;4996086;28;20199;-77
2021/12/13 12:13:31;;;;;;;9.73;8.73;;;10.10;99.90;;;;;;5005926;28;20194;-77
2021/12/13 12:16:02;;;;;;;9.43;8.52;;;10.20;99.90;;;;;;5002880;28;20597;-78
2021/12/13 12:18:31;;;;;;;8.65;7.85;;;10.30;99.90;;;;;;4994585;28;20286;-78
2021/12/13 12:21:29;;;;;;;8.70;7.90;;;10.30;99.90;;;;;;5006784;28;20637;-78
2021/12/13 12:23:59;;;;;;;10.90;9.82;;;10.40;99.90;;;;;;4998351;28;20286;-76
2021/12/13 12:26:26;;;;;;;9.25;8.30;;;10.40;99.90;;;;;;5006172;28;20255;-77
2021/12/13 12:28:58;;;;;;;8.82;7.93;;;10.30;99.90;;;;;;5003447;28;20199;-77
2021/12/13 12:31:30;;;;;;;9.98;9.02;;;10.40;99.90;;;;;;5005600;28;20520;-78
2021/12/13 12:33:59;;;;;;;9.40;8.50;;;10.40;99.90;;;;;;4991438;28;20266;-78
2021/12/13 12:36:43;;;;;;;10.13;9.23;;;10.30;99.90;;;;;;5000119;28;20710;-77
2021/12/13 12:39:56;;;;;;;9.98;8.98;;;10.30;99.90;;;;;;4998694;28;20204;-78
2021/12/13 12:42:30;;;;;;;9.15;8.35;;;10.30;99.90;;;;;;5009138;28;20199;-78
2021/12/13 12:45:19;;;;;;;9.40;8.50;;;10.20;99.90;;;;;;5009106;28;20248;-78
2021/12/13 12:48:21;;;;;;;10.35;9.30;;;10.20;99.90;;;;;;5001732;28;20587;-78
2021/12/13 12:50:54;;;;;;;9.80;8.90;;;10.10;99.90;;;;;;5002034;28;20199;-78
2021/12/13 12:53:41;;;;;;;10.50;9.55;;;10.00;99.90;;;;;;4999863;28;20199;-78
2021/12/13 12:56:14;;;;;;;12.85;11.55;;;10.00;99.90;;;;;;4998199;28;20329;-78
2021/12/13 12:58:51;;;;;;;11.10;10.15;;;10.10;99.90;;;;;;5011985;28;20199;-78
2021/12/13 13:01:21;;;;;;;11.73;10.55;;;10.10;99.90;;;;;;5001167;28;20240;-78
2021/12/13 13:03:49;;;;;;;12.45;10.60;;;10.10;99.90;;;;;;5003484;28;20222;-77
2021/12/13 13:06:19;;;;;;;10.85;9.85;;;10.10;99.90;;;;;;5001525;28;20330;-78
2021/12/13 13:08:49;;;;;;;10.05;9.15;;;10.00;99.90;;;;;;5009110;28;20222;-78
2021/12/13 13:11:31;;;;;;;9.15;8.35;;;10.00;99.90;;;;;;5000541;28;20194;-77
2021/12/13 13:14:10;;;;;;;9.55;8.65;;;10.10;99.90;;;;;;4999280;28;20207;-82
2021/12/13 13:16:41;;;;;;;7.40;6.80;;;10.20;99.90;;;;;;5007774;28;20359;-78
2021/12/13 13:19:10;;;;;;;7.40;6.72;;;10.30;99.90;;;;;;5007383;28;20282;-78